メインページ
METAR-TAF:

METAR-TAF

空港 :

ヴァヴァウ国際空港

ヴァヴァウ諸島, トンガ

緯度: 18-35-07S, 経度: 173-57-42W, 海抜: 72m

現時点の気象観測

当レポートは12分前の17:00(UTC)に作成
無風
気温 24°C
湿度 94%
気圧 1012 hPa
視程10km以上
高度700ftの雲はほとんどない
高度1600ftの千切れ雲あり

METAR: NFTV 221700Z 00000KT 9999 FEW007 BKN016 24/23 Q1012

時間: 06:12 (17:12 UTC)

予報

当レポートは6時間11分前の11:01(UTC)に作成
予報は22日の 12時(UTC)から 23日の 12時(UTC)まで有効
北/北東の風 7kt
視程10km以上
高度1800ftの雲は散在している

TAF: NFTV 221101Z 2212/2312 02007KT 9999 SCT018

4,000以上の空港の気象観測と天気予報(METAR報とTAF報)

利用可能な観測所は地図上に黄色い丸と赤い丸で示す。

丸の上にカーソルを重ねると観測所名を参照できる。

次にクリックすると気象観測と天気予報を参照できる。

マップの切り替え:黒色「×」印の緑ボタンをクリックして拡大、「-」印の緑ボタンをクリックして縮小、緑色の三角印をクリックして隣りの地図に切り替え


METAR-TAF: